Time;durP1;ratioP1;P1;durP2;ratioP2;P2;SDS_P1;SDS_P2;PMS_P1;PMS_P2;Temp;Humidity;BMP_temperature;BMP_pressure;BME280_temperature;BME280_humidity;BME280_pressure;Samples;Min_cycle;Max_cycle;Signal;HPM_P1;HPM_P2
2021/12/04 00:01:57;;;;;;;106.55;92.32;;;5.10;99.90;;;;;;5095844;28;20242;-84
2021/12/04 00:04:32;;;;;;;128.20;115.95;;;5.00;99.90;;;;;;5096025;28;20159;-84
2021/12/04 00:06:57;;;;;;;158.77;145.52;;;5.00;99.90;;;;;;5096762;28;20168;-84
2021/12/04 00:09:23;;;;;;;157.30;144.10;;;4.90;99.90;;;;;;5095966;28;20187;-84
2021/12/04 00:12:03;;;;;;;160.93;147.37;;;4.90;99.90;;;;;;5097663;28;20228;-84
2021/12/04 00:14:30;;;;;;;143.25;131.07;;;4.90;99.90;;;;;;5097686;28;20175;-83
2021/12/04 00:16:57;;;;;;;142.52;130.27;;;4.90;99.90;;;;;;5095123;28;20178;-84
2021/12/04 00:19:23;;;;;;;180.18;166.45;;;4.90;99.90;;;;;;5097131;28;20206;-84
2021/12/04 00:21:49;;;;;;;148.45;135.60;;;4.90;99.90;;;;;;5097392;28;20163;-83
2021/12/04 00:24:15;;;;;;;159.55;146.55;;;4.90;99.90;;;;;;5097463;28;20276;-84
2021/12/04 00:26:41;;;;;;;139.03;126.47;;;4.90;99.90;;;;;;5097126;28;20167;-83
2021/12/04 00:29:07;;;;;;;100.27;89.50;;;5.00;99.90;;;;;;5096895;28;20424;-83
2021/12/04 00:31:33;;;;;;;96.90;86.33;;;5.00;99.90;;;;;;5095678;28;20937;-84
2021/12/04 00:33:59;;;;;;;92.68;75.93;;;5.10;99.90;;;;;;5096631;28;20179;-83
2021/12/04 00:50:03;;;;;;;86.45;56.78;;;5.10;99.90;;;;;;5097186;28;20194;-84
2021/12/04 00:52:29;;;;;;;105.15;91.43;;;5.10;99.90;;;;;;5097311;28;20183;-84
2021/12/04 00:54:54;;;;;;;108.53;97.03;;;5.10;99.90;;;;;;5097066;28;20170;-84
2021/12/04 00:57:20;;;;;;;116.73;105.37;;;5.00;99.90;;;;;;5096785;28;20163;-84
2021/12/04 00:59:49;;;;;;;103.23;92.37;;;5.00;99.90;;;;;;5096631;28;20183;-84
2021/12/04 01:02:17;;;;;;;100.25;86.40;;;5.00;99.90;;;;;;5096080;28;20228;-83
2021/12/04 01:04:43;;;;;;;94.85;81.82;;;5.10;99.90;;;;;;5097155;28;20171;-83
2021/12/04 01:07:09;;;;;;;105.83;93.03;;;5.00;99.90;;;;;;5095369;28;20189;-83
2021/12/04 01:09:35;;;;;;;96.70;84.93;;;5.10;99.90;;;;;;5095816;28;20553;-83
2021/12/04 01:12:02;;;;;;;92.03;74.25;;;5.10;99.90;;;;;;5096995;28;20167;-83
2021/12/04 01:14:29;;;;;;;88.55;64.13;;;5.10;99.90;;;;;;5096766;28;20167;-84
2021/12/04 01:16:55;;;;;;;89.68;68.03;;;5.10;99.90;;;;;;5096736;28;20226;-84
2021/12/04 01:19:21;;;;;;;88.95;63.83;;;5.10;99.90;;;;;;5096772;28;20190;-84
2021/12/04 01:21:49;;;;;;;87.97;61.87;;;5.10;99.90;;;;;;5097304;28;20164;-83
2021/12/04 01:24:15;;;;;;;87.05;57.70;;;5.10;99.90;;;;;;5097132;28;20853;-84
2021/12/04 01:26:41;;;;;;;94.07;82.72;;;5.10;99.90;;;;;;5097132;28;20178;-83
2021/12/04 01:29:07;;;;;;;93.18;80.10;;;5.10;99.90;;;;;;5101196;28;20191;-84
2021/12/04 01:31:33;;;;;;;95.33;71.57;;;5.10;99.90;;;;;;5099764;28;20645;-84
2021/12/04 01:33:59;;;;;;;97.88;86.97;;;5.10;99.90;;;;;;5103217;28;20187;-84
2021/12/04 01:36:25;;;;;;;93.82;79.80;;;5.10;99.90;;;;;;5102564;28;20172;-84
2021/12/04 01:38:52;;;;;;;126.87;114.77;;;5.00;99.90;;;;;;5100723;28;20249;-83
2021/12/04 01:41:18;;;;;;;171.02;157.30;;;5.00;99.90;;;;;;5102121;28;20421;-84
2021/12/04 01:43:44;;;;;;;178.75;165.07;;;5.00;99.90;;;;;;5102235;28;20167;-83
2021/12/04 01:46:10;;;;;;;238.93;223.20;;;4.90;99.90;;;;;;5102541;28;20593;-84
2021/12/04 01:48:35;;;;;;;178.00;164.40;;;4.90;99.90;;;;;;5103064;28;20167;-83
2021/12/04 01:51:02;;;;;;;222.17;207.47;;;4.80;99.90;;;;;;5102621;28;20183;-84
2021/12/04 01:53:28;;;;;;;277.00;259.83;;;4.80;99.90;;;;;;5103308;28;20215;-84
2021/12/04 01:55:56;;;;;;;223.70;208.20;;;4.80;99.90;;;;;;5104058;28;20162;-84
2021/12/04 01:58:23;;;;;;;236.10;220.95;;;4.80;99.90;;;;;;5104663;28;20649;-84
2021/12/04 02:00:49;;;;;;;250.10;233.98;;;4.80;99.90;;;;;;5102918;28;20187;-84
2021/12/04 02:03:16;;;;;;;286.02;268.70;;;4.80;99.90;;;;;;5161996;22;20311;-86
2021/12/04 02:05:43;;;;;;;257.98;242.05;;;4.90;99.90;;;;;;5096336;28;20160;-86
2021/12/04 02:08:12;;;;;;;242.65;227.00;;;4.80;99.90;;;;;;5095756;28;20216;-86
2021/12/04 02:10:42;;;;;;;223.90;209.02;;;4.80;99.90;;;;;;5095631;28;20190;-86
2021/12/04 02:13:08;;;;;;;221.18;206.48;;;4.80;99.90;;;;;;5095108;28;20280;-86
2021/12/04 02:15:33;;;;;;;240.40;225.20;;;4.80;99.90;;;;;;5095625;28;20190;-86
2021/12/04 02:18:01;;;;;;;213.10;198.20;;;4.70;99.90;;;;;;5095584;28;20889;-86
2021/12/04 02:20:28;;;;;;;202.82;188.98;;;4.70;99.90;;;;;;5095801;28;20183;-85
2021/12/04 02:22:56;;;;;;;234.93;219.70;;;4.70;99.90;;;;;;5094180;28;20578;-85
2021/12/04 02:25:22;;;;;;;209.23;194.60;;;4.70;99.90;;;;;;5095446;28;20159;-85
2021/12/04 02:27:48;;;;;;;160.43;148.00;;;4.70;99.90;;;;;;5096037;28;20579;-85
2021/12/04 02:30:18;;;;;;;176.18;163.10;;;4.60;99.90;;;;;;5094577;28;20432;-82
2021/12/04 02:32:44;;;;;;;158.77;146.25;;;4.60;99.90;;;;;;5094480;28;20298;-83
2021/12/04 02:35:11;;;;;;;151.90;139.65;;;4.60;99.90;;;;;;5095621;28;20159;-82
2021/12/04 02:37:38;;;;;;;183.32;169.70;;;4.70;99.90;;;;;;5095428;28;20156;-83
2021/12/04 02:40:07;;;;;;;180.60;167.15;;;4.70;99.90;;;;;;5097860;28;20183;-83
2021/12/04 02:42:33;;;;;;;154.65;142.30;;;4.70;99.90;;;;;;5098608;28;20167;-83
2021/12/04 02:45:01;;;;;;;165.60;153.00;;;4.70;99.90;;;;;;5097854;28;20178;-83
2021/12/04 02:47:27;;;;;;;121.10;109.85;;;4.70;99.90;;;;;;5099792;28;20242;-83
2021/12/04 02:49:57;;;;;;;162.70;150.05;;;4.70;99.90;;;;;;5099307;28;20179;-83
2021/12/04 02:52:23;;;;;;;157.77;144.95;;;4.70;99.90;;;;;;5099335;28;20195;-83
2021/12/04 02:54:50;;;;;;;163.38;150.30;;;4.70;99.90;;;;;;5098022;28;20167;-83
2021/12/04 02:57:18;;;;;;;141.13;129.10;;;4.70;99.90;;;;;;5098758;28;20163;-83
2021/12/04 02:59:44;;;;;;;147.52;134.98;;;4.70;99.90;;;;;;5099558;28;20183;-83
2021/12/04 03:02:17;;;;;;;143.60;131.50;;;4.70;99.90;;;;;;5099035;28;20239;-83
2021/12/04 03:04:46;;;;;;;142.82;130.82;;;4.60;99.90;;;;;;5099382;28;20143;-83
2021/12/04 03:07:12;;;;;;;142.40;130.32;;;4.70;99.90;;;;;;5097962;28;20530;-83
2021/12/04 03:09:38;;;;;;;142.30;130.45;;;4.70;99.90;;;;;;5098975;28;20179;-83
2021/12/04 03:12:05;;;;;;;138.07;126.17;;;4.70;99.90;;;;;;5098678;28;20162;-83
2021/12/04 03:14:31;;;;;;;165.82;152.70;;;4.70;99.90;;;;;;5098908;28;20167;-83
2021/12/04 03:16:57;;;;;;;138.80;126.90;;;4.70;99.90;;;;;;5098207;28;20255;-83
2021/12/04 03:19:24;;;;;;;149.38;137.35;;;4.70;99.90;;;;;;5097362;28;20478;-83
2021/12/04 03:21:49;;;;;;;160.00;147.05;;;4.70;99.90;;;;;;5098991;28;20211;-83
2021/12/04 03:24:17;;;;;;;118.57;107.37;;;4.70;99.90;;;;;;5098522;28;20627;-83
2021/12/04 03:26:43;;;;;;;125.78;114.45;;;4.70;99.90;;;;;;5098593;28;20249;-82
2021/12/04 03:29:12;;;;;;;141.68;129.27;;;4.70;99.90;;;;;;5097927;28;20183;-84
2021/12/04 03:32:10;;;;;;;128.23;116.78;;;4.70;99.90;;;;;;5098324;28;20546;-82
2021/12/04 03:42:34;;;;;;;133.45;121.78;;;4.70;99.90;;;;;;5098376;28;20148;-82
2021/12/04 03:45:00;;;;;;;128.23;116.78;;;4.70;99.90;;;;;;5098719;28;20181;-82
2021/12/04 03:47:30;;;;;;;135.85;123.50;;;4.70;99.90;;;;;;5096438;28;20171;-83
2021/12/04 03:49:56;;;;;;;132.20;120.63;;;4.60;99.90;;;;;;5096267;28;20273;-82
2021/12/04 03:52:22;;;;;;;151.43;139.23;;;4.60;99.90;;;;;;5098504;28;20605;-83
2021/12/04 03:54:48;;;;;;;135.77;124.07;;;4.60;99.90;;;;;;5098147;28;20165;-83
2021/12/04 03:57:13;;;;;;;129.10;117.50;;;4.60;99.90;;;;;;5096587;28;20221;-83
2021/12/04 03:59:45;;;;;;;130.57;119.00;;;4.60;99.90;;;;;;5097576;28;20428;-83
2021/12/04 04:02:12;;;;;;;124.38;112.97;;;4.60;99.90;;;;;;5097308;28;20175;-83
2021/12/04 04:04:39;;;;;;;137.27;125.43;;;4.60;99.90;;;;;;5097384;28;20238;-83
2021/12/04 04:07:06;;;;;;;153.57;140.57;;;4.60;99.90;;;;;;5096536;28;20167;-83
2021/12/04 04:09:35;;;;;;;137.32;125.07;;;4.60;99.90;;;;;;5097345;28;20271;-83
2021/12/04 04:12:02;;;;;;;153.88;141.18;;;4.60;99.90;;;;;;5097812;28;20174;-83
2021/12/04 04:14:28;;;;;;;126.75;115.35;;;4.60;99.90;;;;;;5097657;28;20626;-83
2021/12/04 04:16:55;;;;;;;137.60;125.23;;;4.70;99.90;;;;;;5097276;28;20202;-83
2021/12/04 04:19:22;;;;;;;110.80;99.95;;;4.60;99.90;;;;;;5098223;28;20459;-83
2021/12/04 04:21:53;;;;;;;140.95;128.70;;;4.60;99.90;;;;;;5098095;28;20159;-83
2021/12/04 04:24:18;;;;;;;141.93;129.55;;;4.60;99.90;;;;;;5098026;28;20151;-83
2021/12/04 04:26:45;;;;;;;118.60;107.40;;;4.60;99.90;;;;;;5097419;28;20627;-82
2021/12/04 04:29:12;;;;;;;111.78;100.82;;;4.60;99.90;;;;;;5098096;28;20460;-83
2021/12/04 04:31:45;;;;;;;121.68;110.40;;;4.60;99.90;;;;;;5098367;28;20220;-83
2021/12/04 04:34:11;;;;;;;127.55;116.15;;;4.60;99.90;;;;;;5097945;28;20201;-83
2021/12/04 05:14:28;;;;;;;116.68;105.43;;;4.50;99.90;;;;;;5101144;28;20151;-82
2021/12/04 05:19:53;;;;;;;138.77;126.30;;;4.50;99.90;;;;;;5080537;28;20187;-82
2021/12/04 05:22:18;;;;;;;100.60;89.97;;;4.50;99.90;;;;;;5096895;28;20564;-82
2021/12/04 05:24:46;;;;;;;113.67;102.67;;;4.50;99.90;;;;;;5096733;28;20161;-82
2021/12/04 05:27:12;;;;;;;127.32;115.85;;;4.50;99.90;;;;;;5095191;28;20896;-82
2021/12/04 05:29:37;;;;;;;113.78;102.88;;;4.60;99.90;;;;;;5096365;28;20195;-82
2021/12/04 05:32:05;;;;;;;109.80;98.83;;;4.50;99.90;;;;;;5095087;28;20163;-83
2021/12/04 05:34:32;;;;;;;111.13;100.15;;;4.60;99.90;;;;;;5096438;28;20201;-82
2021/12/04 05:37:04;;;;;;;102.20;91.68;;;4.60;99.90;;;;;;5096238;28;20241;-82
2021/12/04 05:39:29;;;;;;;103.18;92.47;;;4.60;99.90;;;;;;5095348;28;20193;-83
2021/12/04 05:41:56;;;;;;;116.20;105.07;;;4.50;99.90;;;;;;5096265;28;20273;-83
2021/12/04 05:44:25;;;;;;;98.80;88.35;;;4.60;99.90;;;;;;5096447;28;20413;-85
2021/12/04 05:47:17;;;;;;;92.55;79.53;;;4.60;99.90;;;;;;5096245;28;20163;-85
2021/12/04 05:55:07;;;;;;;110.85;99.57;;;4.60;99.90;;;;;;5096052;28;20144;-85
2021/12/04 05:57:31;;;;;;;104.90;94.20;;;4.60;99.90;;;;;;5095886;28;20172;-85
2021/12/04 05:59:57;;;;;;;113.37;102.43;;;4.60;99.90;;;;;;5096003;28;20546;-85
2021/12/04 06:02:23;;;;;;;114.15;103.05;;;4.60;99.90;;;;;;5096049;28;20421;-85
2021/12/04 06:04:49;;;;;;;118.07;107.03;;;4.70;99.90;;;;;;5096194;28;20163;-85
2021/12/04 06:07:17;;;;;;;116.17;105.17;;;4.60;99.90;;;;;;5095917;28;20185;-85
2021/12/04 06:09:43;;;;;;;109.43;98.45;;;4.60;99.90;;;;;;5096044;28;20589;-85
2021/12/04 06:12:09;;;;;;;112.40;101.37;;;4.60;99.90;;;;;;5095686;28;20159;-85
2021/12/04 06:14:35;;;;;;;120.10;108.83;;;4.60;99.90;;;;;;5094305;28;20169;-85
2021/12/04 06:17:04;;;;;;;129.30;117.45;;;4.60;99.90;;;;;;5095528;28;20159;-85
2021/12/04 06:24:59;;;;;;;99.35;88.80;;;4.60;99.90;;;;;;5096336;28;20190;-85
2021/12/04 06:27:24;;;;;;;103.05;92.35;;;4.60;99.90;;;;;;5095109;28;20163;-86
2021/12/04 06:29:50;;;;;;;102.47;90.00;;;4.60;99.90;;;;;;5099257;28;20175;-86
2021/12/04 06:32:17;;;;;;;120.33;109.03;;;4.60;99.90;;;;;;5099042;28;20164;-85
2021/12/04 06:34:42;;;;;;;105.75;94.88;;;4.60;99.90;;;;;;5097607;28;20171;-86
2021/12/04 06:37:08;;;;;;;101.57;90.97;;;4.60;99.90;;;;;;5099577;28;20151;-86
2021/12/04 06:39:34;;;;;;;113.90;102.35;;;4.60;99.90;;;;;;5098645;28;20179;-86
2021/12/04 06:42:00;;;;;;;122.13;110.77;;;4.60;99.90;;;;;;5098668;28;20173;-86
2021/12/04 06:44:26;;;;;;;115.60;104.53;;;4.60;99.90;;;;;;5097647;28;20179;-86
2021/12/04 06:46:52;;;;;;;101.47;90.90;;;4.60;99.90;;;;;;5097097;28;20181;-86
2021/12/04 06:49:34;;;;;;;113.43;102.07;;;4.60;99.90;;;;;;5097832;28;20273;-86
2021/12/04 06:52:03;;;;;;;96.30;85.88;;;4.60;99.90;;;;;;5099361;28;20140;-86
2021/12/04 06:54:35;;;;;;;95.72;85.25;;;4.70;99.90;;;;;;5097567;28;20172;-86
2021/12/04 06:57:03;;;;;;;109.50;98.68;;;4.60;99.90;;;;;;5098867;28;20173;-86
2021/12/04 06:59:31;;;;;;;93.30;81.05;;;4.60;99.90;;;;;;5097912;28;20175;-86
2021/12/04 07:01:57;;;;;;;117.55;106.07;;;4.60;99.90;;;;;;5098804;28;20235;-87
2021/12/04 07:04:29;;;;;;;109.90;98.17;;;4.60;99.90;;;;;;5098980;28;20246;-86
2021/12/04 07:06:54;;;;;;;111.25;100.35;;;4.60;99.90;;;;;;5097396;28;20163;-86
2021/12/04 07:09:20;;;;;;;104.30;93.63;;;4.60;99.90;;;;;;5098540;28;20669;-86
2021/12/04 07:11:46;;;;;;;108.53;97.87;;;4.60;99.90;;;;;;5099156;28;20843;-86
2021/12/04 07:14:12;;;;;;;98.70;88.18;;;4.60;99.90;;;;;;5098500;28;20187;-87
2021/12/04 07:16:38;;;;;;;100.93;90.47;;;4.60;99.90;;;;;;5098949;28;20155;-87
2021/12/04 07:19:03;;;;;;;101.43;90.10;;;4.60;99.90;;;;;;5098689;28;20237;-86
2021/12/04 07:21:29;;;;;;;97.13;86.73;;;4.60;99.90;;;;;;5098971;28;20518;-87
2021/12/04 07:23:55;;;;;;;98.03;87.57;;;4.60;99.90;;;;;;5099447;28;20170;-87
2021/12/04 07:26:20;;;;;;;102.57;91.87;;;4.60;99.90;;;;;;5098836;28;20224;-87
2021/12/04 07:28:46;;;;;;;116.47;104.87;;;4.60;99.90;;;;;;5098156;28;20182;-87
2021/12/04 07:31:12;;;;;;;108.87;98.03;;;4.60;99.90;;;;;;5099750;28;20171;-88
2021/12/04 07:33:38;;;;;;;102.83;91.97;;;4.70;99.90;;;;;;5097854;28;20195;-87
2021/12/04 07:36:04;;;;;;;100.57;89.10;;;4.60;99.90;;;;;;5099005;28;20217;-87
2021/12/04 07:38:33;;;;;;;100.82;90.22;;;4.60;99.90;;;;;;5097915;28;20249;-87
2021/12/04 07:41:05;;;;;;;92.68;80.88;;;4.60;99.90;;;;;;5097138;28;20277;-87
2021/12/04 07:43:34;;;;;;;109.45;98.50;;;4.70;99.90;;;;;;5097907;28;20159;-87
2021/12/04 07:46:00;;;;;;;94.57;84.20;;;4.70;99.90;;;;;;5095751;28;20178;-87
2021/12/04 07:48:29;;;;;;;95.27;84.47;;;4.70;99.90;;;;;;5097323;28;20254;-87
2021/12/04 07:51:01;;;;;;;93.03;78.38;;;4.70;99.90;;;;;;5098550;28;20420;-86
2021/12/04 07:53:28;;;;;;;95.88;85.40;;;4.70;99.90;;;;;;5098304;28;20179;-86
2021/12/04 07:55:53;;;;;;;101.38;90.72;;;4.70;99.90;;;;;;5097343;28;20190;-87
2021/12/04 07:58:19;;;;;;;103.37;92.67;;;4.70;99.90;;;;;;5096459;28;20167;-87
2021/12/04 08:00:45;;;;;;;94.27;80.97;;;4.70;99.90;;;;;;5096492;28;20183;-87
2021/12/04 08:03:10;;;;;;;93.30;80.10;;;4.70;99.90;;;;;;5098947;28;20206;-87
2021/12/04 08:05:36;;;;;;;101.60;90.93;;;4.70;99.90;;;;;;5097468;28;20405;-87
2021/12/04 08:08:02;;;;;;;100.80;85.30;;;4.80;99.90;;;;;;5096142;28;20665;-87
2021/12/04 08:10:35;;;;;;;109.93;98.90;;;4.70;99.90;;;;;;5170724;22;20219;-82
2021/12/04 08:13:13;;;;;;;92.50;79.22;;;4.70;99.90;;;;;;5093179;28;20222;-82
2021/12/04 08:15:42;;;;;;;92.05;76.63;;;4.70;99.90;;;;;;5094522;28;20148;-82
2021/12/04 08:18:09;;;;;;;95.43;84.63;;;4.80;99.90;;;;;;5092877;28;20167;-82
2021/12/04 08:20:41;;;;;;;99.75;89.00;;;4.80;99.90;;;;;;5093289;28;20187;-82
2021/12/04 08:23:07;;;;;;;93.63;75.45;;;4.80;99.90;;;;;;5093844;28;20155;-82
2021/12/04 08:25:36;;;;;;;117.05;105.28;;;4.80;99.90;;;;;;5093912;28;20205;-82
2021/12/04 08:28:11;;;;;;;102.03;91.25;;;4.80;99.90;;;;;;5093805;28;20170;-82
2021/12/04 08:30:40;;;;;;;93.30;81.22;;;4.80;99.90;;;;;;5094268;28;20250;-83
2021/12/04 08:33:17;;;;;;;98.10;87.05;;;4.90;99.90;;;;;;5094166;28;20228;-82
2021/12/04 08:36:07;;;;;;;99.85;89.03;;;5.00;99.90;;;;;;5093864;28;20139;-82
2021/12/04 08:38:46;;;;;;;96.35;85.72;;;4.90;99.90;;;;;;5095273;28;20163;-83
2021/12/04 08:41:22;;;;;;;94.07;77.18;;;4.90;99.90;;;;;;5098604;28;20139;-83
2021/12/04 08:44:22;;;;;;;119.05;107.28;;;4.90;99.90;;;;;;5098580;28;20143;-83
2021/12/04 08:47:01;;;;;;;94.90;83.18;;;4.90;99.90;;;;;;5098559;28;20147;-82
2021/12/04 08:49:49;;;;;;;101.40;90.70;;;4.90;99.90;;;;;;5098318;28;20191;-83
2021/12/04 08:52:27;;;;;;;98.13;87.50;;;4.90;99.90;;;;;;5097754;28;20185;-83
2021/12/04 08:55:03;;;;;;;109.55;98.07;;;5.00;99.90;;;;;;5097909;28;20174;-83
2021/12/04 08:57:42;;;;;;;102.55;91.32;;;5.10;99.90;;;;;;5096499;28;20170;-83
2021/12/04 09:00:48;;;;;;;92.38;74.15;;;5.00;99.90;;;;;;5098037;28;20209;-83
2021/12/04 09:03:41;;;;;;;95.18;82.00;;;5.00;99.90;;;;;;5098601;28;20182;-82
2021/12/04 09:06:07;;;;;;;93.53;77.07;;;5.00;99.90;;;;;;5096655;28;20167;-83
2021/12/04 09:08:37;;;;;;;92.87;76.17;;;5.10;99.90;;;;;;5097459;28;20174;-83
2021/12/04 09:11:13;;;;;;;89.70;69.15;;;5.20;99.90;;;;;;5097553;28;20471;-83
2021/12/04 09:14:02;;;;;;;115.75;103.97;;;5.30;99.90;;;;;;5096552;28;20198;-83
2021/12/04 09:16:34;;;;;;;109.35;98.53;;;5.30;99.90;;;;;;5096168;28;20646;-83
2021/12/04 09:19:18;;;;;;;98.07;82.68;;;5.40;99.90;;;;;;5096474;28;20321;-83
2021/12/04 09:21:49;;;;;;;105.30;94.38;;;5.40;99.90;;;;;;5096397;28;20171;-83
2021/12/04 09:24:17;;;;;;;115.65;103.95;;;5.50;99.90;;;;;;5098961;28;20163;-84
2021/12/04 10:35:19;;;;;;;98.03;87.38;;;5.90;99.90;;;;;;5100018;28;20242;-84
2021/12/04 10:38:06;;;;;;;100.80;75.40;;;6.10;99.90;;;;;;5083004;28;20178;-84
2021/12/04 10:40:39;;;;;;;99.85;85.55;;;6.20;99.90;;;;;;5098019;28;20219;-84
2021/12/04 10:43:15;;;;;;;97.90;81.72;;;6.20;99.90;;;;;;5099923;28;20152;-84
2021/12/04 10:45:52;;;;;;;93.40;77.93;;;6.40;99.90;;;;;;5099575;28;20163;-84
2021/12/04 10:48:29;;;;;;;93.45;77.82;;;6.40;99.90;;;;;;5099561;28;20176;-84
2021/12/04 10:54:03;;;;;;;97.43;86.78;;;6.30;99.90;;;;;;5099604;28;20598;-84
2021/12/04 11:25:22;;;;;;;120.35;108.90;;;6.40;99.90;;;;;;5098650;28;20171;-83
2021/12/04 11:41:58;;;;;;;94.78;71.75;;;6.20;99.90;;;;;;5098164;28;20151;-84
2021/12/04 11:44:53;;;;;;;89.85;66.80;;;6.20;99.90;;;;;;5097281;28;20183;-84
2021/12/04 11:47:34;;;;;;;93.55;77.13;;;6.20;99.90;;;;;;5098905;28;20160;-84
2021/12/04 11:50:27;;;;;;;91.13;69.82;;;6.20;99.90;;;;;;5098288;28;20189;-84
2021/12/04 11:53:06;;;;;;;92.63;76.63;;;6.30;99.90;;;;;;5096778;28;20198;-84
2021/12/04 11:56:12;;;;;;;92.68;78.13;;;6.40;99.90;;;;;;5097015;28;20182;-84
2021/12/04 12:02:06;;;;;;;112.32;100.85;;;6.20;99.90;;;;;;5097832;28;20688;-84
2021/12/04 12:05:12;;;;;;;103.43;91.88;;;6.10;99.90;;;;;;5097524;28;20206;-84
2021/12/04 12:08:05;;;;;;;113.32;101.72;;;6.10;99.90;;;;;;5085900;28;20175;-84
2021/12/04 12:10:53;;;;;;;105.88;94.90;;;6.10;99.90;;;;;;5096546;28;20230;-84
2021/12/04 12:13:40;;;;;;;133.50;120.93;;;6.20;99.90;;;;;;5096387;28;20195;-84
2021/12/04 12:16:26;;;;;;;123.80;111.82;;;6.10;99.90;;;;;;5098294;28;20151;-84
2021/12/04 12:19:05;;;;;;;104.68;93.15;;;6.10;99.90;;;;;;5091537;28;20595;-84
2021/12/04 12:33:44;;;;;;;153.98;140.93;;;6.20;99.90;;;;;;5098445;28;20205;-84
2021/12/04 12:39:26;;;;;;;91.13;72.10;;;6.10;99.90;;;;;;5055429;28;20193;-84
2021/12/04 12:41:55;;;;;;;92.20;75.00;;;6.20;99.90;;;;;;5038708;28;20647;-84
2021/12/04 12:44:32;;;;;;;122.03;110.45;;;6.30;99.90;;;;;;5055490;28;20407;-84
2021/12/04 12:47:02;;;;;;;144.10;131.38;;;6.30;99.90;;;;;;5038571;28;20180;-84
2021/12/04 12:49:45;;;;;;;105.30;93.30;;;6.30;99.90;;;;;;5038617;28;20196;-84
2021/12/04 12:52:21;;;;;;;127.93;116.07;;;6.30;99.90;;;;;;5038476;28;20632;-84
2021/12/04 12:54:56;;;;;;;106.35;91.38;;;6.20;99.90;;;;;;5043974;28;20711;-84
2021/12/04 12:57:38;;;;;;;97.55;78.93;;;6.20;99.90;;;;;;5097561;28;20162;-84
2021/12/04 13:12:09;;;;;;;87.88;62.30;;;6.20;99.90;;;;;;5098050;28;20194;-84
2021/12/04 13:14:41;;;;;;;89.15;67.22;;;6.30;99.90;;;;;;5097117;28;20210;-84
2021/12/04 13:17:16;;;;;;;94.00;82.28;;;6.40;99.90;;;;;;5097560;28;20159;-84
2021/12/04 13:23:38;;;;;;;118.40;106.82;;;6.50;99.90;;;;;;5059853;28;20180;-84
2021/12/04 13:26:57;;;;;;;137.95;125.65;;;6.40;99.90;;;;;;5099466;28;20565;-84
2021/12/04 13:30:36;;;;;;;144.90;132.02;;;6.30;99.90;;;;;;5096888;28;20218;-84
2021/12/04 13:37:25;;;;;;;;;;;;;;;;;;;;;
2021/12/04 13:41:17;;;;;;;;;;;;;;;;;;;;;
2021/12/04 13:48:07;;;;;;;105.45;94.35;;;6.60;99.90;;;;;;4989329;28;20693;-84
2021/12/04 13:51:43;;;;;;;123.60;112.05;;;6.40;99.90;;;;;;4998420;28;20202;-83
2021/12/04 13:58:54;;;;;;;140.77;127.95;;;6.30;99.90;;;;;;4914048;28;20205;-83
2021/12/04 14:06:04;;;;;;;;;;;;;;;;;;;;;
2021/12/04 14:12:44;;;;;;;;;;;;;;;;;;;;;
2021/12/04 14:18:56;;;;;;;277.60;260.65;;;6.30;99.90;;;;;;4955458;29;20286;-83
2021/12/04 14:21:41;;;;;;;;;;;;;;;;;;;;;
2021/12/04 14:24:42;;;;;;;174.70;160.98;;;6.50;99.90;;;;;;5100677;28;20262;-83
2021/12/04 14:27:56;;;;;;;183.80;169.43;;;6.50;99.90;;;;;;5097836;28;20182;-83
2021/12/04 14:30:32;;;;;;;138.95;126.70;;;6.50;99.90;;;;;;5020828;28;20201;-84
2021/12/04 14:33:09;;;;;;;141.55;128.35;;;6.40;99.90;;;;;;5038360;28;20251;-83
2021/12/04 14:35:44;;;;;;;189.52;171.82;;;6.30;99.90;;;;;;5020111;28;20280;-83
2021/12/04 14:41:59;;;;;;;;;;;;;;;;;;;;;
2021/12/04 14:45:06;;;;;;;;;;;;;;;;;;;;;
2021/12/04 14:48:23;;;;;;;203.48;188.60;;;6.20;99.90;;;;;;5092514;28;20602;-83
2021/12/04 14:50:55;;;;;;;157.77;144.85;;;6.20;99.90;;;;;;5088144;28;20199;-83
2021/12/04 14:53:55;;;;;;;175.52;161.82;;;6.20;99.90;;;;;;5091171;28;20198;-83
2021/12/04 14:57:01;;;;;;;;;;;;;;;;;;;;;
2021/12/04 15:00:07;;;;;;;203.90;189.30;;;6.30;99.90;;;;;;5027108;28;20285;-83
2021/12/04 15:02:35;;;;;;;189.43;175.73;;;6.10;99.90;;;;;;5036985;28;20172;-83
2021/12/04 15:05:08;;;;;;;197.15;182.88;;;6.20;99.90;;;;;;5099387;28;20168;-83
2021/12/04 15:07:37;;;;;;;191.45;177.13;;;6.20;99.90;;;;;;5099455;28;20672;-83
2021/12/04 15:10:19;;;;;;;185.07;171.25;;;6.20;99.90;;;;;;5099414;28;20193;-82
2021/12/04 15:13:00;;;;;;;182.30;168.43;;;6.20;99.90;;;;;;5099337;28;20190;-83
2021/12/04 15:15:29;;;;;;;161.63;148.68;;;6.30;99.90;;;;;;5099546;28;20208;-82
2021/12/04 15:17:58;;;;;;;186.90;172.45;;;6.30;99.90;;;;;;5098878;28;20166;-84
2021/12/04 15:21:18;;;;;;;205.50;190.63;;;6.30;99.90;;;;;;5095591;28;20210;-80
2021/12/04 15:24:11;;;;;;;209.88;195.45;;;6.30;99.90;;;;;;5065727;28;20254;-82
2021/12/04 15:26:41;;;;;;;215.20;199.88;;;6.30;99.90;;;;;;5063416;28;20171;-82
2021/12/04 15:29:25;;;;;;;178.88;164.95;;;6.20;99.90;;;;;;5098594;28;20760;-83
2021/12/04 15:31:58;;;;;;;261.75;245.05;;;6.30;99.90;;;;;;5097878;28;20186;-81
2021/12/04 15:35:08;;;;;;;205.10;190.30;;;6.30;99.90;;;;;;5097364;28;20666;-82
2021/12/04 15:37:51;;;;;;;200.80;186.88;;;6.20;99.90;;;;;;5096617;28;20171;-82
2021/12/04 15:40:54;;;;;;;205.25;190.63;;;6.20;99.90;;;;;;5098943;28;20262;-81
2021/12/04 15:46:44;;;;;;;137.30;125.40;;;6.20;99.90;;;;;;5057685;28;20647;-83
2021/12/04 15:55:07;;;;;;;131.93;120.03;;;6.10;99.90;;;;;;5101287;28;20204;-83
2021/12/04 15:57:36;;;;;;;174.60;160.70;;;6.10;99.90;;;;;;5102475;28;20150;-83
2021/12/04 16:00:34;;;;;;;;;;;;;;;;;;;;;
2021/12/04 16:03:18;;;;;;;145.57;132.90;;;6.00;99.90;;;;;;5101656;28;20223;-83
2021/12/04 16:06:01;;;;;;;120.80;109.03;;;5.90;99.90;;;;;;5100520;28;20227;-83
2021/12/04 16:08:44;;;;;;;122.18;110.30;;;5.90;99.90;;;;;;5097318;28;20174;-83
2021/12/04 16:11:11;;;;;;;140.48;128.13;;;5.90;99.90;;;;;;5099615;28;20186;-83
2021/12/04 16:14:01;;;;;;;149.88;137.18;;;5.90;99.90;;;;;;5100766;28;20197;-83
2021/12/04 16:16:47;;;;;;;118.38;107.13;;;5.90;99.90;;;;;;5101170;28;20159;-83
2021/12/04 16:19:44;;;;;;;;;;;;;;;;;;;;;
2021/12/04 16:22:17;;;;;;;112.47;101.57;;;5.90;99.90;;;;;;5102011;28;20231;-83
2021/12/04 16:24:50;;;;;;;115.70;104.55;;;5.90;99.90;;;;;;5100966;28;20143;-83
2021/12/04 16:27:30;;;;;;;112.78;101.65;;;5.90;99.90;;;;;;5101869;28;20162;-83
2021/12/04 16:35:50;;;;;;;115.47;104.40;;;5.90;99.90;;;;;;5100619;28;20147;-83
2021/12/04 16:38:16;;;;;;;125.25;113.18;;;5.90;99.90;;;;;;5100527;28;20165;-82
2021/12/04 16:40:52;;;;;;;109.63;98.20;;;5.90;99.90;;;;;;5098340;28;20242;-82
2021/12/04 16:43:30;;;;;;;120.75;109.57;;;5.90;99.90;;;;;;5099035;28;20166;-82
2021/12/04 16:46:15;;;;;;;115.13;104.03;;;5.90;99.90;;;;;;5096959;28;20183;-82
2021/12/04 16:48:51;;;;;;;114.93;103.72;;;5.90;99.90;;;;;;5098382;28;20167;-83
2021/12/04 16:57:20;;;;;;;133.57;121.22;;;6.00;99.90;;;;;;5100197;28;20511;-82
2021/12/04 16:59:55;;;;;;;106.15;95.22;;;6.00;99.90;;;;;;5101195;28;20561;-83
2021/12/04 17:02:25;;;;;;;105.60;94.68;;;6.00;99.90;;;;;;5101557;28;20165;-83
2021/12/04 17:04:59;;;;;;;113.90;102.53;;;6.00;99.90;;;;;;5101584;28;20557;-82
2021/12/04 17:07:32;;;;;;;140.30;128.02;;;6.00;99.90;;;;;;5102827;28;20194;-83
2021/12/04 17:10:01;;;;;;;144.73;131.85;;;6.00;99.90;;;;;;5102041;28;20248;-83
2021/12/04 17:12:33;;;;;;;149.13;136.07;;;6.10;99.90;;;;;;5101762;28;20207;-82
2021/12/04 17:15:04;;;;;;;148.05;135.50;;;6.10;99.90;;;;;;5103480;28;20140;-83
2021/12/04 17:17:42;;;;;;;144.40;132.05;;;6.10;99.90;;;;;;5102086;28;20159;-83
2021/12/04 17:20:33;;;;;;;133.65;121.82;;;6.10;99.90;;;;;;5101774;28;20638;-82
2021/12/04 17:23:02;;;;;;;141.85;129.05;;;6.10;99.90;;;;;;5103182;28;20148;-82
2021/12/04 17:25:39;;;;;;;157.55;143.95;;;6.20;99.90;;;;;;5101249;28;20256;-82
2021/12/04 17:28:13;;;;;;;156.82;143.55;;;6.20;99.90;;;;;;5102181;28;20158;-82
2021/12/04 17:30:40;;;;;;;162.50;148.75;;;6.20;99.90;;;;;;5101423;28;20353;-82
2021/12/04 17:33:10;;;;;;;182.57;167.90;;;6.20;99.90;;;;;;5101387;28;20220;-83
2021/12/04 17:35:42;;;;;;;172.23;158.63;;;6.20;99.90;;;;;;5101835;28;20182;-82
2021/12/04 17:38:16;;;;;;;179.93;165.52;;;6.20;99.90;;;;;;5103002;28;20151;-83
2021/12/04 17:40:44;;;;;;;150.35;137.63;;;6.20;99.90;;;;;;5101688;28;20187;-83